This is the latest recevied weather packets stored in our database for station/object TG5ALY-16. If no packets are shown the sender has not sent any weather packets the latest 10 day(s).
| Time | Temp. | Humidity | Pressure | Rain* | Wind** | Luminosity | Snow |
|---|---|---|---|---|---|---|---|
| 1778097619 | 24.44° C | 49% | 1013 hPa | 0 mm | - | - | - |
| 1778097018 | 25.56° C | 45% | 1013 hPa | 0 mm | - | - | - |
| 1778096418 | 25.56° C | 45% | 1013 hPa | 0 mm | - | - | - |
| 1778095817 | 25° C | 23% | 1013 hPa | 0 mm | - | - | - |
| 1778095217 | 25° C | 23% | 1014 hPa | 0 mm | - | - | - |
| 1778094616 | 25.56° C | 25% | 1014 hPa | 0 mm | - | - | - |
| 1778094015 | 25.56° C | 25% | 1014 hPa | 0 mm | - | - | - |
| 1778093415 | 24.44° C | 27% | 1014 hPa | 0 mm | - | - | - |
| 1778092814 | 23.89° C | 28% | 1014 hPa | 0 mm | - | - | - |
| 1778092214 | 23.89° C | 28% | 1014 hPa | 0 mm | - | - | - |
| 1778091613 | 23.89° C | 28% | 1015 hPa | 0 mm | - | - | - |
| 1778091012 | 24.44° C | 28% | 1015 hPa | 0 mm | - | - | - |
| 1778090412 | 24.44° C | 28% | 1015 hPa | 0 mm | - | - | - |
| 1778089811 | 23.89° C | 27% | 1015 hPa | 0 mm | - | - | - |
| 1778088564 | 23.33° C | 24% | 1015 hPa | 0 mm | - | - | - |
| 1778087963 | 23.33° C | 24% | 1015 hPa | 0 mm | - | - | - |
| 1778087363 | 23.33° C | 24% | 1015 hPa | 0 mm | - | - | - |
| 1778086762 | 19.44° C | 68% | 1015 hPa | 0 mm | - | - | - |
| 1778086161 | 19.44° C | 68% | 1015 hPa | 0 mm | - | - | - |
| 1778085560 | 20° C | 67% | 1015 hPa | 0 mm | - | - | - |
| 1778084960 | 20° C | 67% | 1016 hPa | 0 mm | - | - | - |
| 1778084374 | 20° C | 66% | 1016 hPa | 0 mm | - | - | - |
| 1778083773 | 19.44° C | 65% | 1016 hPa | 0 mm | - | - | - |
| 1778083172 | 19.44° C | 65% | 1016 hPa | 0 mm | - | - | - |
| 1778082571 | 18.89° C | 66% | 1016 hPa | 0 mm | - | - | - |
* Rain latest hour (hover to see other rain measurements)
** Current wind speed in m/s (hover to see current wind gust speed)